Afton, Texas
Current Conditions -  °F | °C
As of 5:53 PM on Friday 19 Dec 2014 (Local Time) from KCDS Reporting Station
Overcast Overcast  
Wind Chill: 44°   Ceiling: 2000
Heat Index: 44°   Visibility: 10mi
Dew Point: 38°   Wind: 0mph
Humidity: 79%   Direction: NA
Pressure: 30.18"   Gusts: NA
Location:  33.76°N, 100.82°W
Report Text: KCDS 192353Z AUTO 00000KT 10SM OVC020 07/03 A3018 RMK AO2 SLP221 T00670033 10072 20056 50004
Loading
Personal Weather Stations






























Interactive Weather Map New forecast layout! Learn more

10-Day Weather Forecast

Advertisements
Track Severe Weather on mobile